sensor_id;sensor_type;location;lat;lon;timestamp;P1;durP1;ratioP1;P2;durP2;ratioP2
23490;SDS011;14683;50.038;8.078;2024-01-27T02:54:37;6.05;;;1.85;;
23490;SDS011;14683;50.038;8.078;2024-01-27T02:57:40;7.78;;;2.13;;
23490;SDS011;14683;50.038;8.078;2024-01-27T03:00:41;10.30;;;2.30;;
23490;SDS011;14683;50.038;8.078;2024-01-27T03:03:43;5.15;;;2.28;;
23490;SDS011;14683;50.038;8.078;2024-01-27T03:06:44;10.00;;;2.67;;
23490;SDS011;14683;50.038;8.078;2024-01-27T03:09:45;5.80;;;2.67;;
23490;SDS011;14683;50.038;8.078;2024-01-27T03:12:46;5.53;;;2.10;;
23490;SDS011;14683;50.038;8.078;2024-01-27T03:15:47;10.10;;;2.67;;
23490;SDS011;14683;50.038;8.078;2024-01-27T03:18:49;9.85;;;2.40;;
23490;SDS011;14683;50.038;8.078;2024-01-27T03:21:50;4.90;;;2.00;;
23490;SDS011;14683;50.038;8.078;2024-01-27T03:24:52;8.32;;;2.67;;
23490;SDS011;14683;50.038;8.078;2024-01-27T03:27:55;7.90;;;2.33;;
23490;SDS011;14683;50.038;8.078;2024-01-27T03:30:57;9.05;;;2.33;;
23490;SDS011;14683;50.038;8.078;2024-01-27T03:34:00;9.85;;;2.25;;
23490;SDS011;14683;50.038;8.078;2024-01-27T03:37:02;6.03;;;2.08;;
23490;SDS011;14683;50.038;8.078;2024-01-27T03:40:03;10.27;;;2.63;;
23490;SDS011;14683;50.038;8.078;2024-01-27T03:43:05;9.88;;;2.80;;
23490;SDS011;14683;50.038;8.078;2024-01-27T03:46:06;9.05;;;2.10;;
23490;SDS011;14683;50.038;8.078;2024-01-27T03:49:07;8.00;;;2.67;;
23490;SDS011;14683;50.038;8.078;2024-01-27T03:52:08;6.82;;;2.65;;
23490;SDS011;14683;50.038;8.078;2024-01-27T03:55:09;11.50;;;2.60;;
23490;SDS011;14683;50.038;8.078;2024-01-27T03:58:10;7.20;;;2.45;;
23490;SDS011;14683;50.038;8.078;2024-01-27T04:01:11;6.03;;;2.28;;
23490;SDS011;14683;50.038;8.078;2024-01-27T04:04:13;8.55;;;2.63;;
23490;SDS011;14683;50.038;8.078;2024-01-27T04:07:14;6.90;;;2.40;;
23490;SDS011;14683;50.038;8.078;2024-01-27T04:10:15;8.23;;;2.42;;
23490;SDS011;14683;50.038;8.078;2024-01-27T04:13:16;6.78;;;2.47;;
23490;SDS011;14683;50.038;8.078;2024-01-27T04:16:17;8.70;;;2.40;;
23490;SDS011;14683;50.038;8.078;2024-01-27T04:19:18;9.02;;;2.58;;
23490;SDS011;14683;50.038;8.078;2024-01-27T04:22:20;8.05;;;2.65;;
23490;SDS011;14683;50.038;8.078;2024-01-27T04:25:21;12.20;;;2.90;;
23490;SDS011;14683;50.038;8.078;2024-01-27T04:28:22;8.55;;;2.92;;
23490;SDS011;14683;50.038;8.078;2024-01-27T04:31:24;7.55;;;3.55;;
23490;SDS011;14683;50.038;8.078;2024-01-27T04:34:25;7.03;;;3.35;;
23490;SDS011;14683;50.038;8.078;2024-01-27T04:37:26;9.00;;;3.38;;
23490;SDS011;14683;50.038;8.078;2024-01-27T04:40:27;9.77;;;3.30;;
23490;SDS011;14683;50.038;8.078;2024-01-27T04:43:28;12.25;;;2.70;;
23490;SDS011;14683;50.038;8.078;2024-01-27T04:46:29;10.02;;;3.38;;
23490;SDS011;14683;50.038;8.078;2024-01-27T04:49:31;10.73;;;2.92;;
23490;SDS011;14683;50.038;8.078;2024-01-27T04:52:32;5.65;;;2.97;;
23490;SDS011;14683;50.038;8.078;2024-01-27T04:55:33;9.15;;;2.85;;
23490;SDS011;14683;50.038;8.078;2024-01-27T04:58:34;5.43;;;2.92;;
23490;SDS011;14683;50.038;8.078;2024-01-27T05:01:35;5.10;;;2.50;;
23490;SDS011;14683;50.038;8.078;2024-01-27T05:04:37;6.90;;;3.05;;
23490;SDS011;14683;50.038;8.078;2024-01-27T05:07:38;8.70;;;2.65;;
23490;SDS011;14683;50.038;8.078;2024-01-27T05:10:39;7.68;;;2.95;;
23490;SDS011;14683;50.038;8.078;2024-01-27T05:13:41;8.50;;;2.58;;
23490;SDS011;14683;50.038;8.078;2024-01-27T05:16:42;6.10;;;2.70;;
23490;SDS011;14683;50.038;8.078;2024-01-27T05:19:43;9.48;;;2.50;;
23490;SDS011;14683;50.038;8.078;2024-01-27T05:22:44;10.07;;;2.58;;
23490;SDS011;14683;50.038;8.078;2024-01-27T05:25:46;7.88;;;2.42;;
23490;SDS011;14683;50.038;8.078;2024-01-27T05:28:47;7.65;;;3.08;;
23490;SDS011;14683;50.038;8.078;2024-01-27T05:31:50;5.18;;;2.28;;
23490;SDS011;14683;50.038;8.078;2024-01-27T05:34:51;7.50;;;3.00;;
23490;SDS011;14683;50.038;8.078;2024-01-27T05:37:53;5.07;;;2.90;;
23490;SDS011;14683;50.038;8.078;2024-01-27T05:40:54;8.00;;;2.90;;
23490;SDS011;14683;50.038;8.078;2024-01-27T05:43:56;8.70;;;2.97;;
23490;SDS011;14683;50.038;8.078;2024-01-27T05:47:00;6.47;;;3.15;;
23490;SDS011;14683;50.038;8.078;2024-01-27T05:50:01;5.45;;;2.70;;
23490;SDS011;14683;50.038;8.078;2024-01-27T05:53:03;7.90;;;3.15;;
23490;SDS011;14683;50.038;8.078;2024-01-27T05:56:04;5.63;;;2.80;;
23490;SDS011;14683;50.038;8.078;2024-01-27T05:59:06;6.53;;;3.35;;
23490;SDS011;14683;50.038;8.078;2024-01-27T06:02:07;5.35;;;2.63;;
23490;SDS011;14683;50.038;8.078;2024-01-27T06:05:08;9.35;;;2.95;;
23490;SDS011;14683;50.038;8.078;2024-01-27T06:08:10;11.18;;;3.08;;
23490;SDS011;14683;50.038;8.078;2024-01-27T06:11:11;8.50;;;2.90;;
23490;SDS011;14683;50.038;8.078;2024-01-27T06:14:12;8.63;;;3.10;;
23490;SDS011;14683;50.038;8.078;2024-01-27T06:17:13;6.03;;;3.20;;
23490;SDS011;14683;50.038;8.078;2024-01-27T06:20:16;8.23;;;3.25;;
23490;SDS011;14683;50.038;8.078;2024-01-27T06:23:19;9.50;;;3.90;;
23490;SDS011;14683;50.038;8.078;2024-01-27T06:26:20;10.70;;;3.50;;
23490;SDS011;14683;50.038;8.078;2024-01-27T06:29:22;9.48;;;3.38;;
23490;SDS011;14683;50.038;8.078;2024-01-27T06:32:24;7.57;;;3.50;;
23490;SDS011;14683;50.038;8.078;2024-01-27T06:35:25;7.20;;;3.30;;
23490;SDS011;14683;50.038;8.078;2024-01-27T06:38:26;7.60;;;3.00;;
23490;SDS011;14683;50.038;8.078;2024-01-27T06:41:28;9.68;;;3.42;;
23490;SDS011;14683;50.038;8.078;2024-01-27T06:44:29;9.95;;;4.00;;
23490;SDS011;14683;50.038;8.078;2024-01-27T06:47:30;14.15;;;3.70;;
23490;SDS011;14683;50.038;8.078;2024-01-27T06:50:31;9.45;;;4.07;;
23490;SDS011;14683;50.038;8.078;2024-01-27T06:53:32;5.68;;;3.00;;
23490;SDS011;14683;50.038;8.078;2024-01-27T06:56:34;6.10;;;3.45;;
23490;SDS011;14683;50.038;8.078;2024-01-27T06:59:35;7.32;;;3.20;;
23490;SDS011;14683;50.038;8.078;2024-01-27T07:02:36;7.32;;;3.40;;
23490;SDS011;14683;50.038;8.078;2024-01-27T07:05:37;9.75;;;3.53;;
23490;SDS011;14683;50.038;8.078;2024-01-27T07:08:41;12.30;;;4.38;;
23490;SDS011;14683;50.038;8.078;2024-01-27T07:11:42;8.55;;;3.65;;
23490;SDS011;14683;50.038;8.078;2024-01-27T07:14:43;6.38;;;3.35;;
23490;SDS011;14683;50.038;8.078;2024-01-27T07:17:44;7.43;;;3.75;;
23490;SDS011;14683;50.038;8.078;2024-01-27T07:20:46;8.48;;;4.32;;
23490;SDS011;14683;50.038;8.078;2024-01-27T07:23:47;9.82;;;4.50;;
23490;SDS011;14683;50.038;8.078;2024-01-27T07:26:48;11.68;;;4.80;;
23490;SDS011;14683;50.038;8.078;2024-01-27T07:29:49;9.93;;;4.50;;
23490;SDS011;14683;50.038;8.078;2024-01-27T07:32:50;10.93;;;5.78;;
23490;SDS011;14683;50.038;8.078;2024-01-27T07:35:51;8.77;;;3.95;;
23490;SDS011;14683;50.038;8.078;2024-01-27T07:38:53;9.43;;;4.70;;
23490;SDS011;14683;50.038;8.078;2024-01-27T07:41:54;7.18;;;4.45;;
23490;SDS011;14683;50.038;8.078;2024-01-27T07:44:55;11.60;;;4.75;;
23490;SDS011;14683;50.038;8.078;2024-01-27T07:47:56;6.55;;;4.03;;
23490;SDS011;14683;50.038;8.078;2024-01-27T07:50:57;11.05;;;5.05;;
23490;SDS011;14683;50.038;8.078;2024-01-27T07:53:59;14.52;;;6.15;;
23490;SDS011;14683;50.038;8.078;2024-01-27T07:57:00;11.15;;;4.80;;
23490;SDS011;14683;50.038;8.078;2024-01-27T08:00:01;9.52;;;4.88;;
23490;SDS011;14683;50.038;8.078;2024-01-27T08:03:05;16.70;;;5.05;;
23490;SDS011;14683;50.038;8.078;2024-01-27T08:06:06;9.35;;;4.10;;
23490;SDS011;14683;50.038;8.078;2024-01-27T08:09:10;7.78;;;4.20;;
23490;SDS011;14683;50.038;8.078;2024-01-27T08:12:11;9.95;;;4.70;;
23490;SDS011;14683;50.038;8.078;2024-01-27T08:15:12;7.88;;;4.65;;
23490;SDS011;14683;50.038;8.078;2024-01-27T08:18:13;10.05;;;4.75;;
23490;SDS011;14683;50.038;8.078;2024-01-27T08:21:14;7.90;;;5.05;;
23490;SDS011;14683;50.038;8.078;2024-01-27T08:24:16;13.55;;;4.93;;
23490;SDS011;14683;50.038;8.078;2024-01-27T08:27:17;10.43;;;5.30;;
23490;SDS011;14683;50.038;8.078;2024-01-27T08:30:18;15.80;;;6.53;;
23490;SDS011;14683;50.038;8.078;2024-01-27T08:33:19;10.18;;;6.60;;
23490;SDS011;14683;50.038;8.078;2024-01-27T08:36:21;13.88;;;6.22;;
23490;SDS011;14683;50.038;8.078;2024-01-27T08:39:22;13.95;;;4.85;;
23490;SDS011;14683;50.038;8.078;2024-01-27T08:42:23;8.35;;;3.78;;
23490;SDS011;14683;50.038;8.078;2024-01-27T08:45:24;9.73;;;3.75;;
23490;SDS011;14683;50.038;8.078;2024-01-27T08:48:27;10.65;;;4.32;;
23490;SDS011;14683;50.038;8.078;2024-01-27T08:51:28;11.85;;;4.78;;
23490;SDS011;14683;50.038;8.078;2024-01-27T08:54:29;9.50;;;4.53;;
23490;SDS011;14683;50.038;8.078;2024-01-27T08:57:30;13.57;;;4.47;;
23490;SDS011;14683;50.038;8.078;2024-01-27T09:00:31;10.18;;;4.47;;
23490;SDS011;14683;50.038;8.078;2024-01-27T09:03:32;10.80;;;4.20;;
23490;SDS011;14683;50.038;8.078;2024-01-27T09:06:33;10.32;;;4.18;;
23490;SDS011;14683;50.038;8.078;2024-01-27T09:09:34;9.23;;;3.97;;
23490;SDS011;14683;50.038;8.078;2024-01-27T09:12:35;8.40;;;4.00;;
23490;SDS011;14683;50.038;8.078;2024-01-27T09:15:37;13.32;;;4.53;;
23490;SDS011;14683;50.038;8.078;2024-01-27T09:18:38;6.53;;;3.95;;
23490;SDS011;14683;50.038;8.078;2024-01-27T09:21:39;8.45;;;4.50;;
23490;SDS011;14683;50.038;8.078;2024-01-27T09:24:40;8.02;;;4.20;;
23490;SDS011;14683;50.038;8.078;2024-01-27T09:27:41;10.35;;;4.28;;
23490;SDS011;14683;50.038;8.078;2024-01-27T09:30:43;8.68;;;3.92;;
23490;SDS011;14683;50.038;8.078;2024-01-27T09:33:44;10.35;;;4.22;;
23490;SDS011;14683;50.038;8.078;2024-01-27T09:36:45;9.02;;;3.67;;
23490;SDS011;14683;50.038;8.078;2024-01-27T09:39:46;10.27;;;3.70;;
23490;SDS011;14683;50.038;8.078;2024-01-27T09:42:51;11.27;;;4.20;;
23490;SDS011;14683;50.038;8.078;2024-01-27T09:45:53;9.35;;;3.83;;
23490;SDS011;14683;50.038;8.078;2024-01-27T09:48:56;6.85;;;3.90;;
23490;SDS011;14683;50.038;8.078;2024-01-27T09:51:57;7.35;;;3.03;;
23490;SDS011;14683;50.038;8.078;2024-01-27T09:54:59;7.18;;;3.40;;
23490;SDS011;14683;50.038;8.078;2024-01-27T09:58:00;9.65;;;3.80;;
23490;SDS011;14683;50.038;8.078;2024-01-27T10:01:01;7.88;;;3.72;;
23490;SDS011;14683;50.038;8.078;2024-01-27T10:04:03;12.80;;;4.30;;
23490;SDS011;14683;50.038;8.078;2024-01-27T10:07:04;9.68;;;3.95;;
23490;SDS011;14683;50.038;8.078;2024-01-27T10:10:05;12.20;;;4.10;;
23490;SDS011;14683;50.038;8.078;2024-01-27T10:13:07;13.18;;;4.13;;
23490;SDS011;14683;50.038;8.078;2024-01-27T10:16:10;10.30;;;3.38;;
23490;SDS011;14683;50.038;8.078;2024-01-27T10:19:16;13.23;;;4.03;;
23490;SDS011;14683;50.038;8.078;2024-01-27T10:22:18;8.98;;;3.88;;
23490;SDS011;14683;50.038;8.078;2024-01-27T10:25:19;9.85;;;4.18;;
23490;SDS011;14683;50.038;8.078;2024-01-27T10:28:21;9.68;;;4.28;;
23490;SDS011;14683;50.038;8.078;2024-01-27T10:31:27;11.80;;;4.13;;
23490;SDS011;14683;50.038;8.078;2024-01-27T10:34:29;10.60;;;4.35;;
23490;SDS011;14683;50.038;8.078;2024-01-27T10:37:30;10.80;;;3.85;;
23490;SDS011;14683;50.038;8.078;2024-01-27T10:40:32;12.57;;;3.67;;
23490;SDS011;14683;50.038;8.078;2024-01-27T10:43:35;9.60;;;4.00;;
23490;SDS011;14683;50.038;8.078;2024-01-27T10:46:41;11.80;;;4.03;;
23490;SDS011;14683;50.038;8.078;2024-01-27T10:49:44;7.22;;;3.78;;
23490;SDS011;14683;50.038;8.078;2024-01-27T10:52:46;12.13;;;4.20;;
23490;SDS011;14683;50.038;8.078;2024-01-27T10:55:48;8.55;;;4.53;;
23490;SDS011;14683;50.038;8.078;2024-01-27T10:58:51;13.40;;;4.10;;
23490;SDS011;14683;50.038;8.078;2024-01-27T11:01:53;10.43;;;4.10;;
23490;SDS011;14683;50.038;8.078;2024-01-27T11:04:55;12.02;;;4.25;;
23490;SDS011;14683;50.038;8.078;2024-01-27T11:07:59;10.13;;;3.30;;
23490;SDS011;14683;50.038;8.078;2024-01-27T11:11:01;8.88;;;3.40;;
23490;SDS011;14683;50.038;8.078;2024-01-27T11:14:03;6.28;;;2.92;;
23490;SDS011;14683;50.038;8.078;2024-01-27T11:17:04;9.45;;;3.70;;
23490;SDS011;14683;50.038;8.078;2024-01-27T11:20:05;7.13;;;3.40;;
23490;SDS011;14683;50.038;8.078;2024-01-27T11:23:12;8.43;;;3.13;;
23490;SDS011;14683;50.038;8.078;2024-01-27T11:26:18;8.93;;;3.90;;
23490;SDS011;14683;50.038;8.078;2024-01-27T11:29:21;9.98;;;3.40;;
23490;SDS011;14683;50.038;8.078;2024-01-27T11:32:22;12.85;;;4.28;;
23490;SDS011;14683;50.038;8.078;2024-01-27T11:35:24;12.98;;;3.67;;
23490;SDS011;14683;50.038;8.078;2024-01-27T11:38:25;7.95;;;2.90;;
23490;SDS011;14683;50.038;8.078;2024-01-27T11:41:27;9.70;;;3.25;;
23490;SDS011;14683;50.038;8.078;2024-01-27T11:44:29;11.48;;;3.00;;
23490;SDS011;14683;50.038;8.078;2024-01-27T11:47:30;7.85;;;3.05;;
23490;SDS011;14683;50.038;8.078;2024-01-27T11:50:32;13.35;;;3.60;;
23490;SDS011;14683;50.038;8.078;2024-01-27T11:53:33;10.88;;;2.90;;
23490;SDS011;14683;50.038;8.078;2024-01-27T11:56:35;6.47;;;2.55;;
23490;SDS011;14683;50.038;8.078;2024-01-27T11:59:36;10.13;;;3.42;;
23490;SDS011;14683;50.038;8.078;2024-01-27T12:02:38;12.38;;;2.45;;
23490;SDS011;14683;50.038;8.078;2024-01-27T12:05:39;8.98;;;2.75;;
23490;SDS011;14683;50.038;8.078;2024-01-27T12:08:41;8.60;;;2.80;;
23490;SDS011;14683;50.038;8.078;2024-01-27T12:11:48;9.70;;;2.67;;
23490;SDS011;14683;50.038;8.078;2024-01-27T12:14:50;10.90;;;2.33;;
23490;SDS011;14683;50.038;8.078;2024-01-27T12:17:51;9.93;;;2.75;;
23490;SDS011;14683;50.038;8.078;2024-01-27T12:20:56;10.60;;;2.30;;
23490;SDS011;14683;50.038;8.078;2024-01-27T12:24:00;9.10;;;2.20;;
23490;SDS011;14683;50.038;8.078;2024-01-27T12:27:01;11.20;;;2.30;;
23490;SDS011;14683;50.038;8.078;2024-01-27T12:30:03;6.88;;;2.42;;
23490;SDS011;14683;50.038;8.078;2024-01-27T12:33:09;8.18;;;2.05;;
23490;SDS011;14683;50.038;8.078;2024-01-27T12:36:10;8.13;;;2.53;;
23490;SDS011;14683;50.038;8.078;2024-01-27T12:39:11;9.80;;;2.65;;
23490;SDS011;14683;50.038;8.078;2024-01-27T12:42:12;9.35;;;2.45;;
23490;SDS011;14683;50.038;8.078;2024-01-27T12:45:14;10.63;;;2.10;;
23490;SDS011;14683;50.038;8.078;2024-01-27T12:48:15;8.05;;;2.03;;
23490;SDS011;14683;50.038;8.078;2024-01-27T12:51:16;8.80;;;1.90;;
23490;SDS011;14683;50.038;8.078;2024-01-27T12:54:17;11.80;;;1.90;;
23490;SDS011;14683;50.038;8.078;2024-01-27T12:57:18;6.07;;;1.60;;
23490;SDS011;14683;50.038;8.078;2024-01-27T13:00:20;7.00;;;1.75;;
23490;SDS011;14683;50.038;8.078;2024-01-27T13:03:23;6.60;;;1.60;;
23490;SDS011;14683;50.038;8.078;2024-01-27T13:06:24;8.98;;;2.20;;
23490;SDS011;14683;50.038;8.078;2024-01-27T13:09:25;6.88;;;2.22;;
23490;SDS011;14683;50.038;8.078;2024-01-27T13:12:27;8.73;;;2.08;;
23490;SDS011;14683;50.038;8.078;2024-01-27T13:15:28;12.98;;;1.92;;
23490;SDS011;14683;50.038;8.078;2024-01-27T13:18:29;9.02;;;2.03;;
23490;SDS011;14683;50.038;8.078;2024-01-27T13:21:30;7.30;;;1.80;;
23490;SDS011;14683;50.038;8.078;2024-01-27T13:24:31;5.80;;;1.40;;
23490;SDS011;14683;50.038;8.078;2024-01-27T13:27:33;5.05;;;1.40;;
23490;SDS011;14683;50.038;8.078;2024-01-27T13:30:35;10.15;;;2.00;;
23490;SDS011;14683;50.038;8.078;2024-01-27T13:33:36;5.07;;;2.00;;
23490;SDS011;14683;50.038;8.078;2024-01-27T13:36:37;5.20;;;1.60;;
23490;SDS011;14683;50.038;8.078;2024-01-27T13:39:38;6.03;;;1.80;;
23490;SDS011;14683;50.038;8.078;2024-01-27T13:42:39;4.55;;;1.40;;
23490;SDS011;14683;50.038;8.078;2024-01-27T13:45:41;6.88;;;1.70;;
23490;SDS011;14683;50.038;8.078;2024-01-27T13:48:42;7.22;;;1.92;;
23490;SDS011;14683;50.038;8.078;2024-01-27T13:51:44;6.75;;;1.60;;
23490;SDS011;14683;50.038;8.078;2024-01-27T13:54:45;5.53;;;1.55;;
23490;SDS011;14683;50.038;8.078;2024-01-27T13:57:46;12.98;;;2.47;;
23490;SDS011;14683;50.038;8.078;2024-01-27T14:00:47;8.70;;;2.15;;
23490;SDS011;14683;50.038;8.078;2024-01-27T14:03:48;6.28;;;1.80;;
23490;SDS011;14683;50.038;8.078;2024-01-27T14:06:50;9.68;;;2.42;;
23490;SDS011;14683;50.038;8.078;2024-01-27T14:09:52;8.77;;;2.17;;
23490;SDS011;14683;50.038;8.078;2024-01-27T14:12:53;9.07;;;2.80;;
23490;SDS011;14683;50.038;8.078;2024-01-27T14:15:54;9.07;;;1.88;;
23490;SDS011;14683;50.038;8.078;2024-01-27T14:18:55;8.45;;;1.85;;
23490;SDS011;14683;50.038;8.078;2024-01-27T14:21:57;7.47;;;2.00;;
23490;SDS011;14683;50.038;8.078;2024-01-27T14:24:58;5.97;;;2.10;;
23490;SDS011;14683;50.038;8.078;2024-01-27T14:27:59;9.20;;;2.58;;
23490;SDS011;14683;50.038;8.078;2024-01-27T14:31:00;7.15;;;1.95;;
23490;SDS011;14683;50.038;8.078;2024-01-27T14:34:01;4.95;;;2.35;;
23490;SDS011;14683;50.038;8.078;2024-01-27T14:37:03;8.35;;;2.50;;
23490;SDS011;14683;50.038;8.078;2024-01-27T14:40:04;7.50;;;2.15;;
23490;SDS011;14683;50.038;8.078;2024-01-27T14:43:06;8.85;;;2.55;;
23490;SDS011;14683;50.038;8.078;2024-01-27T14:46:10;6.38;;;1.85;;
23490;SDS011;14683;50.038;8.078;2024-01-27T14:49:12;10.30;;;2.40;;
23490;SDS011;14683;50.038;8.078;2024-01-27T14:52:13;8.80;;;2.97;;
23490;SDS011;14683;50.038;8.078;2024-01-27T14:55:14;9.10;;;2.03;;
23490;SDS011;14683;50.038;8.078;2024-01-27T14:58:16;9.00;;;1.67;;
23490;SDS011;14683;50.038;8.078;2024-01-27T15:01:17;5.15;;;2.15;;
23490;SDS011;14683;50.038;8.078;2024-01-27T15:04:19;5.53;;;2.30;;
23490;SDS011;14683;50.038;8.078;2024-01-27T15:07:20;4.70;;;1.90;;
23490;SDS011;14683;50.038;8.078;2024-01-27T15:10:21;5.57;;;1.98;;
23490;SDS011;14683;50.038;8.078;2024-01-27T15:13:22;6.88;;;2.15;;
23490;SDS011;14683;50.038;8.078;2024-01-27T15:16:24;5.40;;;2.33;;
23490;SDS011;14683;50.038;8.078;2024-01-27T15:19:27;5.20;;;2.17;;
23490;SDS011;14683;50.038;8.078;2024-01-27T15:22:28;8.43;;;2.50;;
23490;SDS011;14683;50.038;8.078;2024-01-27T15:25:29;4.88;;;1.63;;
23490;SDS011;14683;50.038;8.078;2024-01-27T15:28:31;5.03;;;1.73;;
23490;SDS011;14683;50.038;8.078;2024-01-27T15:31:32;7.97;;;1.73;;
23490;SDS011;14683;50.038;8.078;2024-01-27T15:34:34;3.53;;;1.58;;
23490;SDS011;14683;50.038;8.078;2024-01-27T15:37:35;4.25;;;1.60;;
23490;SDS011;14683;50.038;8.078;2024-01-27T15:40:39;5.15;;;2.55;;
23490;SDS011;14683;50.038;8.078;2024-01-27T15:43:40;5.65;;;1.75;;
23490;SDS011;14683;50.038;8.078;2024-01-27T15:46:41;7.70;;;2.10;;
23490;SDS011;14683;50.038;8.078;2024-01-27T15:49:42;5.53;;;2.10;;
23490;SDS011;14683;50.038;8.078;2024-01-27T15:52:43;3.83;;;1.80;;
23490;SDS011;14683;50.038;8.078;2024-01-27T15:55:45;10.30;;;1.80;;
23490;SDS011;14683;50.038;8.078;2024-01-27T15:58:46;6.72;;;2.22;;
23490;SDS011;14683;50.038;8.078;2024-01-27T16:01:47;5.85;;;2.03;;
23490;SDS011;14683;50.038;8.078;2024-01-27T16:04:48;4.57;;;1.88;;
23490;SDS011;14683;50.038;8.078;2024-01-27T16:07:49;7.05;;;2.00;;
23490;SDS011;14683;50.038;8.078;2024-01-27T16:10:50;4.60;;;1.70;;
23490;SDS011;14683;50.038;8.078;2024-01-27T16:13:53;5.88;;;1.75;;
23490;SDS011;14683;50.038;8.078;2024-01-27T16:16:54;5.97;;;1.80;;
23490;SDS011;14683;50.038;8.078;2024-01-27T16:19:55;8.75;;;1.90;;
23490;SDS011;14683;50.038;8.078;2024-01-27T16:22:56;5.13;;;1.80;;
23490;SDS011;14683;50.038;8.078;2024-01-27T16:25:57;6.13;;;2.22;;
23490;SDS011;14683;50.038;8.078;2024-01-27T16:28:59;8.95;;;2.08;;
23490;SDS011;14683;50.038;8.078;2024-01-27T16:32:00;5.30;;;1.88;;
23490;SDS011;14683;50.038;8.078;2024-01-27T16:35:01;5.95;;;2.15;;
23490;SDS011;14683;50.038;8.078;2024-01-27T16:38:03;7.10;;;2.50;;
23490;SDS011;14683;50.038;8.078;2024-01-27T16:41:04;8.48;;;2.70;;
23490;SDS011;14683;50.038;8.078;2024-01-27T16:44:05;10.55;;;2.55;;
23490;SDS011;14683;50.038;8.078;2024-01-27T16:47:07;6.45;;;2.10;;
23490;SDS011;14683;50.038;8.078;2024-01-27T16:50:09;8.45;;;2.28;;
23490;SDS011;14683;50.038;8.078;2024-01-27T16:53:11;5.60;;;2.13;;
23490;SDS011;14683;50.038;8.078;2024-01-27T16:56:12;7.78;;;2.47;;
23490;SDS011;14683;50.038;8.078;2024-01-27T16:59:13;10.35;;;3.10;;
23490;SDS011;14683;50.038;8.078;2024-01-27T17:02:14;8.63;;;2.88;;
23490;SDS011;14683;50.038;8.078;2024-01-27T17:05:15;4.65;;;2.00;;
23490;SDS011;14683;50.038;8.078;2024-01-27T17:08:17;7.43;;;2.45;;
23490;SDS011;14683;50.038;8.078;2024-01-27T17:11:18;4.75;;;2.25;;
23490;SDS011;14683;50.038;8.078;2024-01-27T17:14:19;6.35;;;2.40;;
23490;SDS011;14683;50.038;8.078;2024-01-27T17:17:20;9.48;;;2.88;;
23490;SDS011;14683;50.038;8.078;2024-01-27T17:20:21;9.07;;;2.40;;
23490;SDS011;14683;50.038;8.078;2024-01-27T17:23:24;12.70;;;4.68;;
23490;SDS011;14683;50.038;8.078;2024-01-27T17:26:31;12.55;;;2.95;;
23490;SDS011;14683;50.038;8.078;2024-01-27T17:29:33;10.65;;;3.28;;
23490;SDS011;14683;50.038;8.078;2024-01-27T17:32:34;11.98;;;3.92;;
23490;SDS011;14683;50.038;8.078;2024-01-27T17:35:36;10.60;;;4.32;;
23490;SDS011;14683;50.038;8.078;2024-01-27T17:38:38;11.18;;;5.18;;
23490;SDS011;14683;50.038;8.078;2024-01-27T17:41:39;11.73;;;5.72;;
23490;SDS011;14683;50.038;8.078;2024-01-27T17:44:41;14.93;;;5.63;;
23490;SDS011;14683;50.038;8.078;2024-01-27T17:47:42;16.95;;;6.32;;
23490;SDS011;14683;50.038;8.078;2024-01-27T17:50:45;30.90;;;13.30;;
23490;SDS011;14683;50.038;8.078;2024-01-27T17:53:46;49.75;;;20.70;;
23490;SDS011;14683;50.038;8.078;2024-01-27T17:56:47;60.75;;;28.08;;
23490;SDS011;14683;50.038;8.078;2024-01-27T17:59:50;48.83;;;21.02;;
23490;SDS011;14683;50.038;8.078;2024-01-27T18:02:51;36.13;;;17.35;;
23490;SDS011;14683;50.038;8.078;2024-01-27T18:05:52;30.17;;;14.57;;
23490;SDS011;14683;50.038;8.078;2024-01-27T18:08:53;24.35;;;13.15;;
23490;SDS011;14683;50.038;8.078;2024-01-27T18:11:55;24.35;;;12.85;;
23490;SDS011;14683;50.038;8.078;2024-01-27T18:14:56;23.15;;;11.10;;
23490;SDS011;14683;50.038;8.078;2024-01-27T18:17:57;23.75;;;11.20;;
23490;SDS011;14683;50.038;8.078;2024-01-27T18:20:59;29.35;;;12.75;;
23490;SDS011;14683;50.038;8.078;2024-01-27T18:24:00;17.90;;;11.23;;
23490;SDS011;14683;50.038;8.078;2024-01-27T18:27:07;19.17;;;11.60;;
23490;SDS011;14683;50.038;8.078;2024-01-27T18:30:11;23.48;;;11.07;;
23490;SDS011;14683;50.038;8.078;2024-01-27T18:33:13;18.08;;;10.10;;
23490;SDS011;14683;50.038;8.078;2024-01-27T18:36:15;17.27;;;10.50;;
23490;SDS011;14683;50.038;8.078;2024-01-27T18:39:17;20.45;;;10.10;;
23490;SDS011;14683;50.038;8.078;2024-01-27T18:42:20;17.40;;;8.95;;
23490;SDS011;14683;50.038;8.078;2024-01-27T18:45:21;15.85;;;7.82;;
23490;SDS011;14683;50.038;8.078;2024-01-27T18:48:23;17.30;;;7.80;;
23490;SDS011;14683;50.038;8.078;2024-01-27T18:51:24;13.63;;;7.55;;
23490;SDS011;14683;50.038;8.078;2024-01-27T18:54:25;18.73;;;8.85;;
23490;SDS011;14683;50.038;8.078;2024-01-27T18:57:26;15.07;;;8.85;;
23490;SDS011;14683;50.038;8.078;2024-01-27T19:00:30;14.82;;;8.35;;
23490;SDS011;14683;50.038;8.078;2024-01-27T19:03:32;14.18;;;8.18;;
23490;SDS011;14683;50.038;8.078;2024-01-27T19:06:35;15.30;;;8.23;;
23490;SDS011;14683;50.038;8.078;2024-01-27T19:09:37;18.80;;;8.18;;
23490;SDS011;14683;50.038;8.078;2024-01-27T19:12:38;14.82;;;8.55;;
23490;SDS011;14683;50.038;8.078;2024-01-27T19:15:39;14.35;;;7.97;;
23490;SDS011;14683;50.038;8.078;2024-01-27T19:18:41;17.92;;;8.77;;
23490;SDS011;14683;50.038;8.078;2024-01-27T19:21:42;18.27;;;8.95;;
23490;SDS011;14683;50.038;8.078;2024-01-27T19:24:43;17.98;;;8.82;;
23490;SDS011;14683;50.038;8.078;2024-01-27T19:27:44;16.58;;;9.05;;
23490;SDS011;14683;50.038;8.078;2024-01-27T19:30:45;18.77;;;9.77;;
23490;SDS011;14683;50.038;8.078;2024-01-27T19:33:47;23.77;;;11.45;;
23490;SDS011;14683;50.038;8.078;2024-01-27T19:36:48;21.85;;;10.98;;
23490;SDS011;14683;50.038;8.078;2024-01-27T19:39:49;16.45;;;8.57;;
23490;SDS011;14683;50.038;8.078;2024-01-27T19:42:50;19.10;;;9.27;;
23490;SDS011;14683;50.038;8.078;2024-01-27T19:45:51;16.10;;;9.65;;
23490;SDS011;14683;50.038;8.078;2024-01-27T19:48:53;20.48;;;10.27;;
23490;SDS011;14683;50.038;8.078;2024-01-27T19:51:54;24.40;;;10.80;;
23490;SDS011;14683;50.038;8.078;2024-01-27T19:54:55;20.55;;;10.93;;
23490;SDS011;14683;50.038;8.078;2024-01-27T19:57:58;25.50;;;12.18;;
23490;SDS011;14683;50.038;8.078;2024-01-27T20:00:59;32.38;;;13.52;;
23490;SDS011;14683;50.038;8.078;2024-01-27T20:04:00;24.95;;;13.05;;
23490;SDS011;14683;50.038;8.078;2024-01-27T20:07:01;26.23;;;12.90;;
23490;SDS011;14683;50.038;8.078;2024-01-27T20:10:02;26.58;;;13.48;;
23490;SDS011;14683;50.038;8.078;2024-01-27T20:13:04;28.00;;;14.52;;
23490;SDS011;14683;50.038;8.078;2024-01-27T20:16:05;27.40;;;15.25;;
23490;SDS011;14683;50.038;8.078;2024-01-27T20:19:08;27.35;;;14.60;;
23490;SDS011;14683;50.038;8.078;2024-01-27T20:22:10;25.98;;;14.80;;
23490;SDS011;14683;50.038;8.078;2024-01-27T20:25:12;37.38;;;16.85;;
23490;SDS011;14683;50.038;8.078;2024-01-27T20:28:13;29.58;;;15.45;;
23490;SDS011;14683;50.038;8.078;2024-01-27T20:31:14;30.85;;;15.25;;
23490;SDS011;14683;50.038;8.078;2024-01-27T20:34:15;31.95;;;16.45;;
23490;SDS011;14683;50.038;8.078;2024-01-27T20:37:17;35.28;;;18.63;;
23490;SDS011;14683;50.038;8.078;2024-01-27T20:40:20;35.45;;;17.75;;
23490;SDS011;14683;50.038;8.078;2024-01-27T20:43:22;30.40;;;15.35;;
23490;SDS011;14683;50.038;8.078;2024-01-27T20:46:24;26.05;;;14.13;;
23490;SDS011;14683;50.038;8.078;2024-01-27T20:49:25;29.85;;;13.25;;
